Time;durP1;ratioP1;P1;durP2;ratioP2;P2;SDS_P1;SDS_P2;PMS_P1;PMS_P2;Temp;Humidity;BMP_temperature;BMP_pressure;BME280_temperature;BME280_humidity;BME280_pressure;Samples;Min_cycle;Max_cycle;Signal;HPM_P1;HPM_P2
2021/03/17 00:00:49;;;;;;;3.60;3.10;;;;;;;2.73;77.60;101985.81;5020963;28;20099;-88
2021/03/17 00:03:15;;;;;;;4.18;3.30;;;;;;;2.82;77.12;101986.63;5017598;28;20029;-88
2021/03/17 00:05:42;;;;;;;3.67;3.00;;;;;;;2.77;77.58;101992.44;5014637;28;20037;-87
2021/03/17 00:08:08;;;;;;;5.40;3.53;;;;;;;2.83;77.03;101994.41;5022169;28;20059;-87
2021/03/17 00:10:38;;;;;;;4.93;3.80;;;;;;;2.87;77.09;101990.44;5031867;22;20068;-74
2021/03/17 00:13:05;;;;;;;6.38;3.90;;;;;;;2.84;77.49;101985.47;5016089;28;20030;-74
2021/03/17 00:15:37;;;;;;;5.88;3.90;;;;;;;2.76;78.40;101989.94;5009359;28;20037;-74
2021/03/17 00:18:04;;;;;;;5.68;3.92;;;;;;;2.85;77.70;101986.28;5006171;28;20380;-74
2021/03/17 00:20:30;;;;;;;6.90;4.38;;;;;;;2.88;77.34;101991.28;4988710;28;20029;-74
2021/03/17 00:22:58;;;;;;;5.45;3.97;;;;;;;2.89;77.33;101990.28;5009253;28;20029;-74
2021/03/17 00:25:26;;;;;;;6.45;4.00;;;;;;;2.96;77.16;101992.06;5013371;28;20479;-74
2021/03/17 00:27:52;;;;;;;7.32;4.82;;;;;;;2.98;77.19;101983.97;5006126;28;20029;-74
2021/03/17 00:30:18;;;;;;;6.28;4.05;;;;;;;2.97;77.46;101987.63;5007312;28;20053;-74
2021/03/17 00:32:44;;;;;;;7.45;4.28;;;;;;;2.99;77.34;101986.44;5004741;28;20044;-74
2021/03/17 00:35:09;;;;;;;7.07;4.28;;;;;;;3.05;77.05;101984.94;4992804;28;20120;-74
2021/03/17 00:37:35;;;;;;;9.30;5.20;;;;;;;3.05;77.12;101984.94;5005038;28;20033;-74
2021/03/17 00:40:01;;;;;;;11.77;5.97;;;;;;;3.02;77.75;101995.88;4996165;28;20184;-74
2021/03/17 00:42:26;;;;;;;12.05;6.38;;;;;;;3.08;77.10;101986.44;5009898;28;20606;-74
2021/03/17 00:44:52;;;;;;;15.98;8.27;;;;;;;3.00;77.96;101984.63;5005909;28;20026;-74
2021/03/17 00:47:18;;;;;;;12.85;6.25;;;;;;;3.04;77.68;101983.28;5005387;28;20040;-74
2021/03/17 00:49:43;;;;;;;16.60;7.18;;;;;;;2.96;78.62;101985.97;5010979;28;20364;-74
2021/03/17 00:52:09;;;;;;;12.73;7.07;;;;;;;2.98;78.57;101983.97;4994323;28;20101;-74
2021/03/17 00:54:34;;;;;;;17.05;7.30;;;;;;;2.96;78.96;101983.31;5010822;28;20144;-74
2021/03/17 00:57:00;;;;;;;16.60;7.68;;;;;;;2.89;79.49;101983.16;4990440;28;20029;-74
2021/03/17 00:59:25;;;;;;;16.65;7.05;;;;;;;2.87;79.66;101976.34;5003871;28;20032;-74
2021/03/17 01:01:51;;;;;;;16.75;7.88;;;;;;;2.91;78.95;101983.00;5010098;28;21623;-74
2021/03/17 01:04:16;;;;;;;19.40;7.22;;;;;;;2.84;79.65;101976.69;4994942;28;20026;-74
2021/03/17 01:06:42;;;;;;;20.75;8.02;;;;;;;2.82;80.30;101983.97;4994175;28;21979;-74
2021/03/17 01:09:07;;;;;;;17.52;7.68;;;;;;;2.88;79.31;101981.50;5007314;28;20025;-76
2021/03/17 01:11:33;;;;;;;19.95;8.30;;;;;;;2.95;79.39;101984.31;5007492;28;20044;-75
2021/03/17 01:13:59;;;;;;;15.20;7.43;;;;;;;2.99;79.02;101985.63;5008062;28;20043;-75
2021/03/17 01:16:24;;;;;;;16.15;7.72;;;;;;;3.03;78.71;101985.09;4992861;28;20033;-75
2021/03/17 01:18:50;;;;;;;17.95;7.90;;;;;;;3.04;79.05;101983.28;4993334;28;20082;-75
2021/03/17 01:21:15;;;;;;;19.13;8.70;;;;;;;3.01;79.20;101986.28;5012325;28;20068;-75
2021/03/17 01:23:41;;;;;;;17.30;7.90;;;;;;;2.98;79.42;101984.78;4992966;28;20121;-75
2021/03/17 01:26:06;;;;;;;19.88;9.30;;;;;;;3.01;79.28;101989.75;5004105;28;20643;-75
2021/03/17 01:28:32;;;;;;;16.90;8.23;;;;;;;3.01;79.47;101996.88;4991503;28;20030;-75
2021/03/17 01:30:59;;;;;;;19.70;9.80;;;;;;;2.99;79.62;101988.25;5010919;28;20156;-75
2021/03/17 01:33:29;;;;;;;19.67;9.77;;;;;;;3.00;79.41;101997.84;4994771;28;20118;-75
2021/03/17 01:35:55;;;;;;;22.27;9.65;;;;;;;3.02;79.77;102001.16;5009767;28;21404;-75
2021/03/17 01:38:22;;;;;;;22.73;9.50;;;;;;;3.05;79.58;101998.19;5009755;28;20033;-75
2021/03/17 01:40:48;;;;;;;21.00;10.70;;;;;;;3.06;79.31;101997.22;5004629;28;20158;-75
2021/03/17 01:43:14;;;;;;;21.02;9.88;;;;;;;3.06;79.78;101997.22;5004606;28;20562;-75
2021/03/17 01:45:42;;;;;;;19.58;8.68;;;;;;;3.07;79.95;102004.16;5009262;28;20040;-75
2021/03/17 01:48:08;;;;;;;19.65;9.98;;;;;;;3.04;80.29;102000.00;5010087;28;20116;-75
2021/03/17 01:50:49;;;;;;;17.23;9.45;;;;;;;3.07;79.73;102006.81;5010213;28;20096;-75
2021/03/17 01:53:22;;;;;;;19.85;9.60;;;;;;;3.07;79.65;102001.50;5008593;28;20025;-75
2021/03/17 01:55:48;;;;;;;18.75;9.52;;;;;;;3.04;80.06;101999.16;5008462;28;20044;-75
2021/03/17 01:58:14;;;;;;;20.50;10.60;;;;;;;3.04;80.07;102009.75;5005104;28;21404;-75
2021/03/17 02:00:40;;;;;;;18.33;9.38;;;;;;;3.07;80.04;102003.34;5006474;28;20037;-75
2021/03/17 02:03:07;;;;;;;18.08;9.10;;;;;;;3.07;79.94;102003.34;4992407;28;20056;-75
2021/03/17 02:05:37;;;;;;;17.42;9.23;;;;;;;3.10;79.83;102009.13;4992355;28;20138;-75
2021/03/17 02:08:22;;;;;;;16.63;9.93;;;;;;;3.05;80.19;102000.81;5008238;28;20084;-75
2021/03/17 02:10:48;;;;;;;16.17;8.52;;;;;;;3.10;80.14;102005.63;5007531;28;20040;-75
2021/03/17 02:13:51;;;;;;;15.52;8.57;;;;;;;3.04;80.83;102001.81;5008822;28;21147;-75
2021/03/17 02:16:16;;;;;;;16.63;8.52;;;;;;;3.15;79.40;102004.13;5005782;28;20112;-75
2021/03/17 02:18:47;;;;;;;16.50;9.30;;;;;;;3.09;80.15;102004.00;5007081;28;20122;-75
2021/03/17 02:21:31;;;;;;;18.63;9.05;;;;;;;3.04;81.18;102004.47;4992269;28;20112;-75
2021/03/17 02:24:10;;;;;;;15.43;8.77;;;;;;;3.07;80.02;102001.50;5008813;28;20037;-75
2021/03/17 02:27:12;;;;;;;17.75;8.48;;;;;;;3.04;80.28;101996.53;5006784;28;20403;-75
2021/03/17 02:30:07;;;;;;;18.08;8.38;;;;;;;2.94;81.13;102003.84;5007687;28;20082;-75
2021/03/17 02:32:32;;;;;;;18.35;8.60;;;;;;;3.03;80.15;102000.16;5008367;28;20029;-75
2021/03/17 02:35:03;;;;;;;19.67;9.30;;;;;;;3.02;80.33;102001.16;5003708;28;20087;-75
2021/03/17 02:37:31;;;;;;;16.38;8.07;;;;;;;3.00;80.51;101997.84;5007342;28;20120;-75
2021/03/17 02:40:11;;;;;;;17.38;8.32;;;;;;;3.01;80.54;101997.69;4988325;28;20029;-75
2021/03/17 02:42:42;;;;;;;14.23;7.75;;;;;;;3.01;80.70;101997.69;4988753;28;20059;-75
2021/03/17 02:45:14;;;;;;;19.60;9.07;;;;;;;3.04;80.43;102004.47;5007383;28;20025;-75
2021/03/17 02:47:52;;;;;;;19.55;9.70;;;;;;;2.98;80.63;101997.22;5000298;28;20874;-75
2021/03/17 02:50:19;;;;;;;16.95;8.98;;;;;;;3.02;79.91;101995.88;5007828;28;20049;-75
2021/03/17 02:52:50;;;;;;;17.45;8.50;;;;;;;3.04;79.99;102001.81;5009190;28;20127;-75
2021/03/17 02:55:18;;;;;;;18.92;9.88;;;;;;;2.99;80.62;101996.22;5008518;28;20025;-75
2021/03/17 02:57:46;;;;;;;16.52;8.82;;;;;;;3.05;80.17;102000.81;5005213;28;20556;-75
2021/03/17 03:00:14;;;;;;;17.00;8.40;;;;;;;3.06;80.35;102002.50;5005499;28;20868;-75
2021/03/17 03:02:42;;;;;;;16.98;8.30;;;;;;;3.01;80.14;102002.16;5005019;28;20036;-75
2021/03/17 03:05:09;;;;;;;18.65;8.38;;;;;;;3.03;80.35;102001.00;4993740;28;20087;-75
2021/03/17 03:07:35;;;;;;;15.98;8.55;;;;;;;3.06;80.29;101997.22;5008805;28;20034;-75
2021/03/17 03:10:05;;;;;;;18.17;8.75;;;;;;;3.04;80.72;101999.16;4991227;28;20072;-75
2021/03/17 03:12:33;;;;;;;15.60;8.05;;;;;;;3.05;80.41;102000.81;5007091;28;20037;-75
2021/03/17 03:14:58;;;;;;;20.40;7.93;;;;;;;3.04;80.52;102001.81;5006804;28;20053;-75
2021/03/17 03:17:24;;;;;;;18.17;8.48;;;;;;;3.00;81.15;102000.50;4991252;28;20124;-75
2021/03/17 03:19:56;;;;;;;16.85;8.73;;;;;;;3.01;80.63;102000.34;5007459;28;20031;-75
2021/03/17 03:22:24;;;;;;;18.98;8.98;;;;;;;2.99;81.03;102002.34;5006786;28;20022;-75
2021/03/17 03:24:50;;;;;;;15.95;7.80;;;;;;;3.06;80.56;102005.16;5006853;28;20152;-75
2021/03/17 03:27:17;;;;;;;18.52;8.85;;;;;;;2.90;81.55;102007.81;4992498;28;20036;-75
2021/03/17 03:29:43;;;;;;;17.75;8.60;;;;;;;2.99;81.38;102004.16;4990856;28;20429;-75
2021/03/17 03:32:09;;;;;;;17.42;8.40;;;;;;;2.98;81.16;102010.44;5005894;28;20040;-75
2021/03/17 03:34:35;;;;;;;16.92;8.63;;;;;;;3.04;80.92;102017.72;5006167;28;20030;-75
2021/03/17 03:37:01;;;;;;;20.83;8.48;;;;;;;3.04;81.24;102020.34;5005553;28;20155;-75
2021/03/17 03:39:27;;;;;;;18.70;8.30;;;;;;;3.04;81.01;102018.53;5009282;28;20535;-75
2021/03/17 03:41:54;;;;;;;15.38;7.80;;;;;;;3.10;80.44;102018.88;5010578;28;20112;-75
2021/03/17 03:44:19;;;;;;;18.75;8.70;;;;;;;3.12;80.69;102016.88;5009783;28;20486;-75
2021/03/17 03:46:45;;;;;;;18.73;8.73;;;;;;;3.07;81.10;102017.41;5006462;28;20052;-75
2021/03/17 03:49:10;;;;;;;18.48;8.50;;;;;;;3.06;81.04;102020.22;5006980;28;20033;-75
2021/03/17 03:51:39;;;;;;;19.88;9.02;;;;;;;3.06;81.21;102020.22;5007626;28;20022;-75
2021/03/17 03:54:12;;;;;;;20.73;9.15;;;;;;;3.05;81.41;102016.72;5007164;28;20038;-75
2021/03/17 03:57:21;;;;;;;20.33;9.00;;;;;;;3.01;81.56;102028.63;4989464;28;20185;-75
2021/03/17 03:59:49;;;;;;;19.90;9.65;;;;;;;3.08;81.06;102013.75;4981921;28;20049;-75
2021/03/17 04:02:27;;;;;;;20.10;9.82;;;;;;;3.01;81.50;102021.53;4990130;28;20904;-75
2021/03/17 04:04:55;;;;;;;23.02;9.40;;;;;;;3.14;80.99;102022.84;5007487;28;20081;-75
2021/03/17 04:07:23;;;;;;;23.70;10.48;;;;;;;3.11;81.08;102025.81;5012418;28;20067;-75
2021/03/17 04:09:52;;;;;;;24.90;11.02;;;;;;;3.10;80.85;102019.72;5010276;28;20586;-75
2021/03/17 04:12:21;;;;;;;25.23;11.07;;;;;;;3.11;80.86;102023.19;5010677;28;20122;-75
2021/03/17 04:14:50;;;;;;;21.30;9.60;;;;;;;3.11;80.91;102024.00;4989089;28;20110;-75
2021/03/17 04:17:46;;;;;;;25.83;10.43;;;;;;;3.07;81.75;102022.69;5008279;28;20113;-75
2021/03/17 04:20:17;;;;;;;25.98;10.60;;;;;;;3.10;80.98;102025.00;5008149;28;20053;-75
2021/03/17 04:22:45;;;;;;;28.52;11.45;;;;;;;3.09;81.29;102022.53;5012418;28;20037;-75
2021/03/17 04:25:13;;;;;;;20.85;9.85;;;;;;;3.07;81.85;102030.63;5012757;28;20368;-75
2021/03/17 04:27:42;;;;;;;19.77;9.75;;;;;;;3.08;81.44;102032.28;4994020;28;20509;-75
2021/03/17 04:30:19;;;;;;;21.67;10.13;;;;;;;3.05;81.81;102032.59;5009198;28;20491;-75
2021/03/17 04:32:46;;;;;;;24.70;10.43;;;;;;;3.09;81.44;102030.47;5009163;28;20112;-75
2021/03/17 04:35:14;;;;;;;23.45;10.10;;;;;;;3.03;82.09;102029.28;5010720;28;20033;-75
2021/03/17 04:37:44;;;;;;;21.50;10.25;;;;;;;3.04;82.31;102030.94;4993943;28;20400;-75
2021/03/17 04:40:11;;;;;;;23.73;10.25;;;;;;;3.09;81.87;102033.13;5011593;28;20034;-75
2021/03/17 04:42:39;;;;;;;29.70;12.45;;;;;;;3.11;81.52;102037.25;5008320;28;20203;-75
2021/03/17 04:45:07;;;;;;;27.83;10.30;;;;;;;3.12;81.85;102046.00;5010066;28;20519;-75
2021/03/17 04:47:33;;;;;;;26.70;10.50;;;;;;;3.13;82.13;102042.38;5009210;28;20140;-75
2021/03/17 04:49:58;;;;;;;31.95;12.02;;;;;;;3.09;82.16;102044.53;5011565;28;20147;-75
2021/03/17 04:52:25;;;;;;;26.17;10.68;;;;;;;2.99;83.09;102046.50;4996080;28;20116;-75
2021/03/17 04:54:55;;;;;;;28.80;11.63;;;;;;;2.97;83.39;102038.75;4993590;28;20068;-75
2021/03/17 04:57:24;;;;;;;22.52;10.55;;;;;;;3.03;82.56;102046.00;5010535;28;20430;-75
2021/03/17 04:59:51;;;;;;;26.23;11.38;;;;;;;3.03;82.86;102053.13;5006232;28;20033;-75
2021/03/17 05:02:19;;;;;;;25.65;11.30;;;;;;;3.02;82.71;102049.66;4993925;28;20038;-75
2021/03/17 05:04:47;;;;;;;26.30;11.73;;;;;;;3.06;82.53;102057.28;5010081;28;20036;-75
2021/03/17 05:07:14;;;;;;;22.63;10.05;;;;;;;3.09;82.27;102052.47;5012664;28;20036;-75
2021/03/17 05:09:40;;;;;;;24.10;11.52;;;;;;;3.12;81.97;102060.09;5009029;28;20381;-75
2021/03/17 05:12:08;;;;;;;26.25;10.80;;;;;;;3.15;82.15;102065.03;4988990;28;20443;-75
2021/03/17 05:14:35;;;;;;;21.98;10.68;;;;;;;3.12;82.31;102065.38;5005406;28;20037;-75
2021/03/17 05:17:02;;;;;;;23.48;10.07;;;;;;;3.15;82.05;102065.03;4989358;28;20042;-75
2021/03/17 05:19:32;;;;;;;25.33;10.30;;;;;;;3.15;82.07;102069.50;5013795;28;20036;-75
2021/03/17 05:21:58;;;;;;;32.50;12.00;;;;;;;3.16;82.50;102069.34;5008694;28;20052;-75
2021/03/17 05:24:26;;;;;;;34.22;12.23;;;;;;;3.16;82.04;102069.34;5010164;28;20167;-75
2021/03/17 05:26:54;;;;;;;29.00;10.98;;;;;;;3.19;81.99;102074.31;4992309;28;21020;-75
2021/03/17 05:29:21;;;;;;;30.83;12.20;;;;;;;3.19;82.27;102076.13;5011469;28;20029;-75
2021/03/17 05:31:49;;;;;;;27.90;11.55;;;;;;;3.17;82.80;102068.34;5005339;28;20073;-75
2021/03/17 05:34:15;;;;;;;26.20;10.73;;;;;;;3.22;82.02;102076.59;4984632;28;20026;-75
2021/03/17 05:36:41;;;;;;;29.83;10.90;;;;;;;3.20;82.54;102078.59;4992216;28;20040;-76
2021/03/17 05:39:07;;;;;;;28.05;10.68;;;;;;;3.25;82.11;102078.13;5007824;28;20034;-74
2021/03/17 05:41:35;;;;;;;26.05;10.32;;;;;;;3.26;81.86;102083.25;5009348;28;20107;-75
2021/03/17 05:44:02;;;;;;;28.23;12.50;;;;;;;3.30;81.59;102078.44;5012026;28;20064;-75
2021/03/17 05:46:28;;;;;;;30.27;13.15;;;;;;;3.24;82.64;102079.94;5013629;28;20025;-75
2021/03/17 05:48:56;;;;;;;27.23;12.07;;;;;;;3.23;82.72;102082.72;5009770;28;20458;-75
2021/03/17 05:51:22;;;;;;;26.52;11.00;;;;;;;3.27;82.12;102079.59;5010352;28;20029;-75
2021/03/17 05:53:48;;;;;;;27.60;11.88;;;;;;;3.28;82.42;102086.56;5009552;28;20041;-75
2021/03/17 05:56:15;;;;;;;27.10;10.65;;;;;;;3.26;82.72;102088.53;5004022;28;20029;-74
2021/03/17 05:58:42;;;;;;;23.55;12.23;;;;;;;3.32;82.70;102095.00;5007130;28;20308;-76
2021/03/17 06:01:08;;;;;;;27.60;11.07;;;;;;;3.33;82.82;102094.00;4994976;28;20036;-75
2021/03/17 06:03:36;;;;;;;26.15;10.73;;;;;;;3.36;82.58;102098.13;5012247;28;20025;-75
2021/03/17 06:06:06;;;;;;;27.30;11.10;;;;;;;3.37;82.46;102094.47;5006886;28;20081;-75
2021/03/17 06:08:38;;;;;;;23.65;10.90;;;;;;;3.36;82.65;102106.91;4987583;28;20387;-75
2021/03/17 06:11:08;;;;;;;28.27;10.85;;;;;;;3.35;83.00;102102.59;5005579;28;20072;-75
2021/03/17 06:13:34;;;;;;;35.33;12.48;;;;;;;3.39;82.69;102098.59;5005270;28;20638;-75
2021/03/17 06:16:03;;;;;;;26.88;11.73;;;;;;;3.40;82.79;102107.38;5007994;28;20025;-75
2021/03/17 06:18:43;;;;;;;24.92;10.68;;;;;;;3.40;83.34;102112.69;5006242;28;20036;-75
2021/03/17 06:21:10;;;;;;;27.83;11.02;;;;;;;3.46;82.46;102114.69;5006729;28;20063;-75
2021/03/17 06:23:37;;;;;;;29.30;10.20;;;;;;;3.49;82.67;102122.28;5007060;28;20060;-74
2021/03/17 06:26:03;;;;;;;27.02;10.55;;;;;;;3.48;82.37;102123.28;5007010;28;20064;-75
2021/03/17 06:28:29;;;;;;;23.05;10.40;;;;;;;3.47;82.94;102119.00;5007484;28;20033;-75
2021/03/17 06:30:56;;;;;;;30.30;10.70;;;;;;;3.49;82.53;102120.47;4986052;28;20419;-74
2021/03/17 06:33:22;;;;;;;26.88;10.63;;;;;;;3.49;82.58;102125.78;5008331;28;20037;-75
2021/03/17 06:35:48;;;;;;;31.92;12.00;;;;;;;3.50;82.89;102131.91;5007837;28;20029;-75
2021/03/17 06:38:23;;;;;;;38.05;11.88;;;;;;;3.46;84.33;102138.53;5006307;28;20044;-75
2021/03/17 06:40:59;;;;;;;43.80;11.70;;;;;;;3.59;82.82;102136.16;4991522;28;20055;-75
2021/03/17 06:43:48;;;;;;;30.15;10.55;;;;;;;3.48;84.47;102139.19;5008389;28;20027;-75
2021/03/17 06:46:19;;;;;;;27.38;10.02;;;;;;;3.63;82.90;102142.81;4990425;28;20127;-75
2021/03/17 06:48:44;;;;;;;28.02;11.30;;;;;;;3.62;83.42;102135.88;4992581;28;20057;-75
2021/03/17 06:51:17;;;;;;;28.48;10.65;;;;;;;3.71;82.10;102142.78;5006819;28;20108;-75
2021/03/17 06:53:51;;;;;;;32.58;11.82;;;;;;;3.67;82.49;102144.13;4991017;28;20041;-75
2021/03/17 06:56:25;;;;;;;31.73;10.73;;;;;;;3.73;82.06;102142.63;4991242;28;20531;-75
2021/03/17 06:58:53;;;;;;;30.33;10.80;;;;;;;3.76;81.99;102142.28;4993076;28;20454;-75
2021/03/17 07:01:35;;;;;;;32.72;10.90;;;;;;;3.74;82.13;102149.56;5010650;28;20415;-75
2021/03/17 07:04:03;;;;;;;32.05;11.27;;;;;;;3.77;82.21;102147.44;5007093;28;20029;-74
2021/03/17 07:06:29;;;;;;;28.77;10.40;;;;;;;3.73;82.49;102150.56;5006684;28;20158;-74
2021/03/17 07:08:56;;;;;;;35.50;11.68;;;;;;;3.81;82.50;102148.75;5009022;28;20124;-75
2021/03/17 07:11:23;;;;;;;34.28;10.93;;;;;;;3.89;81.75;102146.06;5003521;28;20120;-75
2021/03/17 07:14:04;;;;;;;26.15;11.35;;;;;;;3.99;81.35;102147.72;5006952;28;20227;-75
2021/03/17 07:16:32;;;;;;;32.50;13.15;;;;;;;4.20;80.54;102150.63;5009671;28;20452;-75
2021/03/17 07:18:57;;;;;;;31.85;12.02;;;;;;;4.37;80.27;102152.19;5006327;28;21738;-75
2021/03/17 07:21:34;;;;;;;33.40;12.63;;;;;;;4.50;79.80;102149.81;4993846;28;20114;-75
2021/03/17 07:24:00;;;;;;;32.20;14.15;;;;;;;4.68;79.11;102146.91;5005338;28;20040;-75
2021/03/17 07:26:28;;;;;;;33.22;12.00;;;;;;;4.79;78.66;102150.97;4992333;28;21027;-75
2021/03/17 07:29:00;;;;;;;32.47;11.85;;;;;;;4.89;78.01;102148.94;4991913;28;20033;-75
2021/03/17 07:31:31;;;;;;;32.67;12.02;;;;;;;4.87;78.06;102150.94;4992936;28;20087;-75
2021/03/17 07:34:18;;;;;;;40.67;13.20;;;;;;;4.91;77.51;102148.75;5005628;28;20075;-75
2021/03/17 07:36:54;;;;;;;37.90;13.75;;;;;;;5.08;77.30;102156.44;5011488;28;20044;-75
2021/03/17 07:39:24;;;;;;;46.13;14.18;;;;;;;5.21;76.45;102165.66;5004256;28;20029;-75
2021/03/17 07:41:52;;;;;;;35.72;12.52;;;;;;;5.22;76.35;102148.69;5007517;28;20104;-75
2021/03/17 07:44:19;;;;;;;33.70;12.30;;;;;;;5.18;76.39;102163.31;5008398;28;20017;-75
2021/03/17 07:46:57;;;;;;;39.72;12.45;;;;;;;5.15;76.52;102161.84;5008650;28;20064;-75
2021/03/17 07:49:24;;;;;;;30.50;11.57;;;;;;;5.00;76.36;102151.16;5002080;28;20121;-75
2021/03/17 07:52:02;;;;;;;29.15;10.80;;;;;;;5.16;76.13;102169.63;5005286;28;21015;-75
2021/03/17 07:54:37;;;;;;;24.45;10.23;;;;;;;5.14;76.53;102162.84;5006174;28;20033;-75
2021/03/17 07:57:04;;;;;;;;;;;;;;;5.23;76.32;102169.78;5002288;28;20033;-75
2021/03/17 07:59:30;;;;;;;21.63;8.90;;;;;;;5.34;75.45;102163.19;5005675;28;20076;-75
2021/03/17 08:01:58;;;;;;;23.05;9.40;;;;;;;5.40;75.55;102163.31;5007044;28;20030;-75
2021/03/17 08:04:27;;;;;;;28.08;8.35;;;;;;;5.60;75.06;102165.47;5007106;28;20038;-75
2021/03/17 08:06:58;;;;;;;23.02;9.10;;;;;;;5.65;75.23;102168.41;4987083;28;20021;-75
2021/03/17 08:09:24;;;;;;;17.27;7.72;;;;;;;5.68;74.87;102168.88;5003376;28;20033;-75
2021/03/17 08:11:52;;;;;;;23.25;8.45;;;;;;;5.73;74.40;102165.66;4986541;28;20041;-75
2021/03/17 08:14:19;;;;;;;23.33;9.70;;;;;;;5.81;74.16;102176.22;5004056;28;20217;-75
2021/03/17 08:16:45;;;;;;;22.02;8.82;;;;;;;5.81;74.42;102175.41;5006390;28;20021;-75
2021/03/17 08:19:22;;;;;;;31.27;10.93;;;;;;;5.62;74.68;102171.44;5004270;28;20033;-75
2021/03/17 08:21:52;;;;;;;25.33;9.15;;;;;;;5.46;75.12;102172.41;5005898;28;20061;-75
2021/03/17 08:24:39;;;;;;;20.83;9.20;;;;;;;5.43;74.63;102178.06;4988190;28;20029;-75
2021/03/17 08:27:07;;;;;;;23.10;8.85;;;;;;;5.44;74.66;102177.06;4987786;28;20503;-75
2021/03/17 08:29:38;;;;;;;26.90;10.45;;;;;;;5.51;74.91;102185.16;5009508;28;20044;-75
2021/03/17 08:32:05;;;;;;;29.70;9.38;;;;;;;5.54;75.25;102190.94;4987403;28;20103;-75
2021/03/17 08:34:32;;;;;;;21.58;9.13;;;;;;;5.65;74.99;102185.19;5005541;28;20036;-75
2021/03/17 08:37:00;;;;;;;28.10;11.32;;;;;;;5.66;75.36;102192.16;5007258;28;20072;-75
2021/03/17 08:39:34;;;;;;;24.83;9.73;;;;;;;5.51;75.05;102183.31;5009891;28;20067;-75
2021/03/17 08:42:03;;;;;;;21.60;9.60;;;;;;;5.59;75.34;102190.41;5007811;28;20056;-75
2021/03/17 08:44:32;;;;;;;25.35;9.63;;;;;;;5.66;75.01;102189.50;5010041;28;20519;-75
2021/03/17 08:47:22;;;;;;;24.77;9.98;;;;;;;5.71;74.71;102189.78;5004417;28;20033;-76
2021/03/17 08:49:51;;;;;;;18.88;7.75;;;;;;;5.83;74.48;102192.84;5008027;28;20087;-75
2021/03/17 08:52:19;;;;;;;16.52;7.03;;;;;;;5.76;74.13;102194.56;5009906;28;20025;-74
2021/03/17 08:54:59;;;;;;;16.00;7.38;;;;;;;5.62;73.56;102187.38;5009646;28;20037;-75
2021/03/17 08:57:44;;;;;;;15.32;6.68;;;;;;;5.72;73.79;102195.91;5010009;28;20112;-75
2021/03/17 09:00:11;;;;;;;14.82;7.15;;;;;;;5.75;74.04;102199.06;5009494;28;20057;-75
2021/03/17 09:02:36;;;;;;;17.85;7.22;;;;;;;5.80;73.30;102197.69;5011761;28;20026;-75
2021/03/17 09:05:04;;;;;;;18.42;8.38;;;;;;;5.91;72.62;102194.59;5012385;28;20045;-75
2021/03/17 09:07:32;;;;;;;16.23;6.70;;;;;;;5.93;72.25;102192.63;5011388;28;20040;-75
2021/03/17 09:10:08;;;;;;;13.93;6.63;;;;;;;6.07;72.06;102192.59;5010421;28;20087;-75
2021/03/17 09:12:34;;;;;;;15.80;6.55;;;;;;;6.23;71.79;102191.59;4986538;28;20040;-75
2021/03/17 09:15:14;;;;;;;13.70;6.47;;;;;;;6.48;70.75;102202.78;5007005;28;20037;-75
2021/03/17 09:17:49;;;;;;;14.55;5.97;;;;;;;6.78;70.59;102200.88;5008841;28;20072;-75
2021/03/17 09:20:34;;;;;;;12.73;5.93;;;;;;;6.91;69.73;102201.03;5009546;28;20029;-75
2021/03/17 09:23:02;;;;;;;14.32;6.35;;;;;;;6.81;70.06;102199.69;5011684;28;20037;-75
2021/03/17 09:25:29;;;;;;;14.57;6.20;;;;;;;6.63;70.08;102205.41;5011219;28;20038;-75
2021/03/17 09:28:07;;;;;;;15.60;6.75;;;;;;;6.42;70.78;102208.84;5010704;28;20076;-75
2021/03/17 09:30:36;;;;;;;17.05;6.97;;;;;;;6.19;71.83;102219.59;4992482;28;20518;-75
2021/03/17 09:33:05;;;;;;;16.15;7.43;;;;;;;6.07;71.72;102215.72;5009914;28;20039;-75
2021/03/17 09:35:31;;;;;;;14.27;6.65;;;;;;;5.97;72.05;102223.16;5007264;28;20034;-75
2021/03/17 09:38:09;;;;;;;17.63;6.75;;;;;;;5.87;71.62;102219.88;4991124;28;20029;-75
2021/03/17 09:40:41;;;;;;;13.85;6.75;;;;;;;5.82;72.79;102224.94;5006269;28;20523;-75
2021/03/17 09:43:30;;;;;;;17.35;6.80;;;;;;;5.98;72.00;102222.97;5009764;28;20030;-75
2021/03/17 09:45:56;;;;;;;11.80;6.53;;;;;;;6.16;71.25;102214.63;4992218;28;20426;-75
2021/03/17 09:48:23;;;;;;;16.55;7.32;;;;;;;6.28;71.47;102220.31;5009375;28;20040;-75
2021/03/17 09:50:56;;;;;;;14.75;7.03;;;;;;;6.55;70.11;102226.84;5006647;28;20044;-75
2021/03/17 09:53:22;;;;;;;11.38;6.30;;;;;;;6.88;69.38;102220.06;5006892;28;20048;-75
2021/03/17 09:55:47;;;;;;;13.68;6.35;;;;;;;7.05;68.77;102219.84;5007658;28;20033;-75
2021/03/17 09:58:13;;;;;;;15.15;6.18;;;;;;;7.23;68.68;102225.56;5006250;28;20056;-75
2021/03/17 10:00:39;;;;;;;10.00;5.60;;;;;;;7.31;68.29;102225.44;5003035;28;20037;-75
2021/03/17 10:03:11;;;;;;;11.07;5.53;;;;;;;7.42;67.43;102221.44;5005172;28;20116;-75
2021/03/17 10:05:38;;;;;;;10.98;5.60;;;;;;;7.56;66.82;102218.72;5007308;28;20018;-75
2021/03/17 10:08:04;;;;;;;9.25;5.22;;;;;;;7.62;66.62;102226.97;5009208;28;20037;-75
2021/03/17 10:10:29;;;;;;;8.32;4.40;;;;;;;7.56;65.97;102225.91;5006098;28;20114;-75
2021/03/17 10:12:55;;;;;;;5.38;3.70;;;;;;;7.44;65.61;102225.56;5006570;28;20026;-75
2021/03/17 10:15:24;;;;;;;4.95;2.70;;;;;;;7.27;62.95;102227.66;5006348;28;20136;-75
2021/03/17 10:17:52;;;;;;;5.90;2.03;;;;;;;7.49;64.26;102225.81;5009768;28;20040;-75
2021/03/17 10:20:21;;;;;;;2.28;1.55;;;;;;;7.72;61.93;102232.78;5004801;28;20053;-75
2021/03/17 10:22:49;;;;;;;3.63;1.55;;;;;;;7.86;60.36;102234.53;5007032;28;20550;-75
2021/03/17 10:25:23;;;;;;;6.68;1.70;;;;;;;8.09;58.53;102237.81;5009364;28;20960;-75
2021/03/17 10:28:04;;;;;;;4.60;1.67;;;;;;;8.41;59.16;102251.56;5002021;28;20025;-76
2021/03/17 10:30:33;;;;;;;4.53;2.15;;;;;;;8.74;58.81;102249.06;5006190;28;20124;-75
2021/03/17 10:33:02;;;;;;;3.28;2.17;;;;;;;8.97;58.84;102246.06;5006346;28;20144;-76
2021/03/17 10:35:30;;;;;;;3.08;2.15;;;;;;;8.93;58.19;102253.66;4990907;28;20033;-75
2021/03/17 10:37:58;;;;;;;5.00;2.55;;;;;;;8.54;58.72;102248.16;5002915;28;20033;-75
2021/03/17 10:40:26;;;;;;;4.85;2.65;;;;;;;8.66;57.34;102244.72;4991078;28;20034;-75
2021/03/17 10:42:56;;;;;;;4.40;2.72;;;;;;;8.67;57.99;102249.03;5007234;28;20091;-75
2021/03/17 10:45:23;;;;;;;6.38;3.40;;;;;;;8.69;57.53;102246.16;5004849;28;20030;-75
2021/03/17 10:47:50;;;;;;;3.35;2.05;;;;;;;8.58;56.87;102250.22;5006340;28;20036;-75
2021/03/17 10:50:18;;;;;;;3.78;2.72;;;;;;;8.41;56.45;102248.91;4988124;28;20037;-75
2021/03/17 10:52:48;;;;;;;2.47;1.90;;;;;;;8.25;54.80;102251.84;5004755;28;20021;-75
2021/03/17 10:55:15;;;;;;;3.40;2.20;;;;;;;8.51;56.51;102251.22;5006341;28;20021;-75
2021/03/17 10:57:40;;;;;;;4.03;2.50;;;;;;;8.82;56.57;102250.75;5006960;28;20037;-75
2021/03/17 11:00:12;;;;;;;2.88;2.30;;;;;;;8.94;54.78;102243.78;5006185;28;20048;-75
2021/03/17 11:02:38;;;;;;;2.20;1.40;;;;;;;8.82;52.67;102250.75;4990383;28;20036;-75
2021/03/17 11:05:10;;;;;;;5.55;2.17;;;;;;;9.21;54.43;102245.53;5006219;28;20053;-75
2021/03/17 11:08:00;;;;;;;4.18;2.10;;;;;;;9.35;53.84;102255.22;5007250;28;20480;-75
2021/03/17 11:10:30;;;;;;;3.60;2.13;;;;;;;9.91;53.87;102244.16;5005377;28;22254;-75
2021/03/17 11:12:56;;;;;;;6.10;2.65;;;;;;;10.13;51.39;102235.88;5004747;28;20069;-75
2021/03/17 11:15:27;;;;;;;3.00;2.42;;;;;;;10.27;53.28;102233.00;5002243;28;20564;-75
2021/03/17 11:17:57;;;;;;;5.22;2.40;;;;;;;10.67;53.04;102232.06;5001082;28;20132;-75
2021/03/17 11:20:24;;;;;;;4.22;2.45;;;;;;;10.66;50.79;102227.72;5006366;28;20717;-75
2021/03/17 11:22:50;;;;;;;4.28;2.42;;;;;;;11.16;52.25;102234.91;5004407;28;20064;-75
2021/03/17 11:25:21;;;;;;;2.83;1.90;;;;;;;11.73;50.19;102226.84;4989888;28;20575;-76
2021/03/17 11:27:47;;;;;;;3.08;1.90;;;;;;;12.05;48.88;102214.19;5006272;28;20034;-75
2021/03/17 11:30:13;;;;;;;3.95;2.00;;;;;;;11.65;48.69;102227.94;4987823;28;20645;-75
2021/03/17 11:32:38;;;;;;;4.65;2.20;;;;;;;10.88;50.61;102229.88;4988347;28;20037;-75
2021/03/17 11:35:05;;;;;;;4.65;2.08;;;;;;;9.96;49.67;102239.00;5004848;28;20040;-75